sensor_id;sensor_type;location;lat;lon;timestamp;P1;durP1;ratioP1;P2;durP2;ratioP2
3993;SDS011;2011;48.238;13.948;2023-05-07T00:01:35;9.17;;;6.73;;
3993;SDS011;2011;48.238;13.948;2023-05-07T00:04:04;9.50;;;7.20;;
3993;SDS011;2011;48.238;13.948;2023-05-07T00:06:32;11.43;;;7.20;;
3993;SDS011;2011;48.238;13.948;2023-05-07T00:08:59;9.83;;;7.13;;
3993;SDS011;2011;48.238;13.948;2023-05-07T00:11:26;9.87;;;6.43;;
3993;SDS011;2011;48.238;13.948;2023-05-07T00:13:53;10.53;;;6.43;;
3993;SDS011;2011;48.238;13.948;2023-05-07T00:16:21;9.03;;;5.73;;
3993;SDS011;2011;48.238;13.948;2023-05-07T00:18:48;20.97;;;5.90;;
3993;SDS011;2011;48.238;13.948;2023-05-07T00:21:16;10.53;;;5.43;;
3993;SDS011;2011;48.238;13.948;2023-05-07T00:23:43;15.33;;;6.70;;
3993;SDS011;2011;48.238;13.948;2023-05-07T00:26:10;9.43;;;5.40;;
3993;SDS011;2011;48.238;13.948;2023-05-07T00:28:37;8.90;;;5.10;;
3993;SDS011;2011;48.238;13.948;2023-05-07T00:31:04;10.60;;;5.07;;
3993;SDS011;2011;48.238;13.948;2023-05-07T00:33:31;13.73;;;5.47;;
3993;SDS011;2011;48.238;13.948;2023-05-07T00:35:58;7.10;;;5.03;;
3993;SDS011;2011;48.238;13.948;2023-05-07T00:38:28;13.90;;;5.63;;
3993;SDS011;2011;48.238;13.948;2023-05-07T00:40:55;9.30;;;4.83;;
3993;SDS011;2011;48.238;13.948;2023-05-07T00:43:22;8.60;;;5.10;;
3993;SDS011;2011;48.238;13.948;2023-05-07T00:45:49;9.70;;;5.17;;
3993;SDS011;2011;48.238;13.948;2023-05-07T00:48:16;8.03;;;5.13;;
3993;SDS011;2011;48.238;13.948;2023-05-07T00:50:43;10.60;;;5.53;;
3993;SDS011;2011;48.238;13.948;2023-05-07T00:53:12;10.60;;;6.07;;
3993;SDS011;2011;48.238;13.948;2023-05-07T00:55:40;11.70;;;6.00;;
3993;SDS011;2011;48.238;13.948;2023-05-07T00:58:08;8.90;;;6.40;;
3993;SDS011;2011;48.238;13.948;2023-05-07T01:00:35;10.90;;;7.30;;
3993;SDS011;2011;48.238;13.948;2023-05-07T01:03:02;13.40;;;6.20;;
3993;SDS011;2011;48.238;13.948;2023-05-07T01:05:29;8.10;;;5.50;;
3993;SDS011;2011;48.238;13.948;2023-05-07T01:07:56;9.47;;;5.90;;
3993;SDS011;2011;48.238;13.948;2023-05-07T01:10:24;8.33;;;5.30;;
3993;SDS011;2011;48.238;13.948;2023-05-07T01:12:53;15.50;;;6.00;;
3993;SDS011;2011;48.238;13.948;2023-05-07T01:15:21;7.53;;;5.43;;
3993;SDS011;2011;48.238;13.948;2023-05-07T01:17:48;7.83;;;5.67;;
3993;SDS011;2011;48.238;13.948;2023-05-07T01:20:15;10.10;;;6.20;;
3993;SDS011;2011;48.238;13.948;2023-05-07T01:22:43;6.90;;;5.30;;
3993;SDS011;2011;48.238;13.948;2023-05-07T01:25:11;11.67;;;5.43;;
3993;SDS011;2011;48.238;13.948;2023-05-07T01:27:38;9.73;;;6.20;;
3993;SDS011;2011;48.238;13.948;2023-05-07T01:30:06;7.50;;;4.90;;
3993;SDS011;2011;48.238;13.948;2023-05-07T01:32:35;8.10;;;5.40;;
3993;SDS011;2011;48.238;13.948;2023-05-07T01:35:07;6.30;;;5.00;;
3993;SDS011;2011;48.238;13.948;2023-05-07T01:37:37;8.33;;;5.80;;
3993;SDS011;2011;48.238;13.948;2023-05-07T01:40:07;9.50;;;5.23;;
3993;SDS011;2011;48.238;13.948;2023-05-07T01:42:35;12.20;;;5.10;;
3993;SDS011;2011;48.238;13.948;2023-05-07T01:45:02;6.80;;;4.93;;
3993;SDS011;2011;48.238;13.948;2023-05-07T01:47:30;7.43;;;4.67;;
3993;SDS011;2011;48.238;13.948;2023-05-07T01:49:57;10.50;;;6.40;;
3993;SDS011;2011;48.238;13.948;2023-05-07T01:52:24;9.80;;;6.87;;
3993;SDS011;2011;48.238;13.948;2023-05-07T01:54:52;11.07;;;7.17;;
3993;SDS011;2011;48.238;13.948;2023-05-07T01:57:20;19.77;;;8.00;;
3993;SDS011;2011;48.238;13.948;2023-05-07T01:59:47;13.03;;;7.90;;
3993;SDS011;2011;48.238;13.948;2023-05-07T02:02:14;13.17;;;7.37;;
3993;SDS011;2011;48.238;13.948;2023-05-07T02:04:41;9.30;;;5.90;;
3993;SDS011;2011;48.238;13.948;2023-05-07T02:07:08;8.60;;;5.80;;
3993;SDS011;2011;48.238;13.948;2023-05-07T02:09:35;10.73;;;6.20;;
3993;SDS011;2011;48.238;13.948;2023-05-07T02:12:02;9.50;;;6.17;;
3993;SDS011;2011;48.238;13.948;2023-05-07T02:14:31;10.50;;;5.57;;
3993;SDS011;2011;48.238;13.948;2023-05-07T02:16:58;8.67;;;6.77;;
3993;SDS011;2011;48.238;13.948;2023-05-07T02:19:25;12.93;;;6.33;;
3993;SDS011;2011;48.238;13.948;2023-05-07T02:21:52;10.43;;;6.70;;
3993;SDS011;2011;48.238;13.948;2023-05-07T02:24:19;11.60;;;6.20;;
3993;SDS011;2011;48.238;13.948;2023-05-07T02:26:46;8.93;;;6.20;;
3993;SDS011;2011;48.238;13.948;2023-05-07T02:29:13;7.57;;;5.50;;
3993;SDS011;2011;48.238;13.948;2023-05-07T02:31:42;9.60;;;5.43;;
3993;SDS011;2011;48.238;13.948;2023-05-07T02:34:08;20.07;;;6.40;;
3993;SDS011;2011;48.238;13.948;2023-05-07T02:36:35;8.00;;;5.83;;
3993;SDS011;2011;48.238;13.948;2023-05-07T02:39:03;11.80;;;6.40;;
3993;SDS011;2011;48.238;13.948;2023-05-07T02:41:30;11.00;;;5.90;;
3993;SDS011;2011;48.238;13.948;2023-05-07T02:43:57;9.17;;;6.00;;
3993;SDS011;2011;48.238;13.948;2023-05-07T02:46:24;11.47;;;5.43;;
3993;SDS011;2011;48.238;13.948;2023-05-07T02:48:52;7.57;;;5.73;;
3993;SDS011;2011;48.238;13.948;2023-05-07T02:51:19;7.50;;;5.27;;
3993;SDS011;2011;48.238;13.948;2023-05-07T02:53:47;7.87;;;5.60;;
3993;SDS011;2011;48.238;13.948;2023-05-07T02:56:15;7.97;;;4.87;;
3993;SDS011;2011;48.238;13.948;2023-05-07T02:58:42;7.60;;;5.43;;
3993;SDS011;2011;48.238;13.948;2023-05-07T03:01:08;13.00;;;4.70;;
3993;SDS011;2011;48.238;13.948;2023-05-07T03:03:36;12.53;;;5.93;;
3993;SDS011;2011;48.238;13.948;2023-05-07T03:06:05;9.03;;;5.63;;
3993;SDS011;2011;48.238;13.948;2023-05-07T03:08:32;9.17;;;5.33;;
3993;SDS011;2011;48.238;13.948;2023-05-07T03:10:59;6.07;;;4.70;;
3993;SDS011;2011;48.238;13.948;2023-05-07T03:13:26;6.13;;;4.50;;
3993;SDS011;2011;48.238;13.948;2023-05-07T03:15:53;10.97;;;5.83;;
3993;SDS011;2011;48.238;13.948;2023-05-07T03:18:20;9.60;;;5.93;;
3993;SDS011;2011;48.238;13.948;2023-05-07T03:20:47;8.03;;;5.03;;
3993;SDS011;2011;48.238;13.948;2023-05-07T03:23:16;10.40;;;5.90;;
3993;SDS011;2011;48.238;13.948;2023-05-07T03:25:43;13.53;;;6.80;;
3993;SDS011;2011;48.238;13.948;2023-05-07T03:28:10;7.50;;;6.00;;
3993;SDS011;2011;48.238;13.948;2023-05-07T03:30:37;7.70;;;6.10;;
3993;SDS011;2011;48.238;13.948;2023-05-07T03:33:04;10.17;;;6.20;;
3993;SDS011;2011;48.238;13.948;2023-05-07T03:35:31;7.67;;;5.40;;
3993;SDS011;2011;48.238;13.948;2023-05-07T03:37:58;9.60;;;5.33;;
3993;SDS011;2011;48.238;13.948;2023-05-07T03:40:27;12.63;;;4.90;;
3993;SDS011;2011;48.238;13.948;2023-05-07T03:42:55;9.50;;;4.03;;
3993;SDS011;2011;48.238;13.948;2023-05-07T03:45:22;8.60;;;4.40;;
3993;SDS011;2011;48.238;13.948;2023-05-07T03:47:49;8.17;;;5.07;;
3993;SDS011;2011;48.238;13.948;2023-05-07T03:50:16;8.27;;;4.90;;
3993;SDS011;2011;48.238;13.948;2023-05-07T03:52:43;10.27;;;4.80;;
3993;SDS011;2011;48.238;13.948;2023-05-07T03:55:10;7.07;;;5.00;;
3993;SDS011;2011;48.238;13.948;2023-05-07T03:57:38;6.27;;;4.47;;
3993;SDS011;2011;48.238;13.948;2023-05-07T04:00:06;10.60;;;4.93;;
3993;SDS011;2011;48.238;13.948;2023-05-07T04:02:35;6.93;;;4.60;;
3993;SDS011;2011;48.238;13.948;2023-05-07T04:05:21;8.10;;;4.73;;
3993;SDS011;2011;48.238;13.948;2023-05-07T04:07:52;7.40;;;4.90;;
3993;SDS011;2011;48.238;13.948;2023-05-07T04:10:19;8.37;;;5.30;;
3993;SDS011;2011;48.238;13.948;2023-05-07T04:12:47;7.80;;;5.40;;
3993;SDS011;2011;48.238;13.948;2023-05-07T04:15:14;10.20;;;6.33;;
3993;SDS011;2011;48.238;13.948;2023-05-07T04:17:41;7.83;;;5.90;;
3993;SDS011;2011;48.238;13.948;2023-05-07T04:20:08;12.70;;;6.20;;
3993;SDS011;2011;48.238;13.948;2023-05-07T04:22:37;8.77;;;6.00;;
3993;SDS011;2011;48.238;13.948;2023-05-07T04:25:04;15.47;;;6.57;;
3993;SDS011;2011;48.238;13.948;2023-05-07T04:27:32;10.10;;;5.90;;
3993;SDS011;2011;48.238;13.948;2023-05-07T04:30:00;12.50;;;6.70;;
3993;SDS011;2011;48.238;13.948;2023-05-07T04:32:27;11.50;;;7.00;;
3993;SDS011;2011;48.238;13.948;2023-05-07T04:34:55;9.87;;;7.07;;
3993;SDS011;2011;48.238;13.948;2023-05-07T04:37:22;11.13;;;7.30;;
3993;SDS011;2011;48.238;13.948;2023-05-07T04:39:49;9.37;;;6.87;;
3993;SDS011;2011;48.238;13.948;2023-05-07T04:42:16;9.30;;;6.57;;
3993;SDS011;2011;48.238;13.948;2023-05-07T04:44:44;8.63;;;6.70;;
3993;SDS011;2011;48.238;13.948;2023-05-07T04:47:12;9.70;;;6.83;;
3993;SDS011;2011;48.238;13.948;2023-05-07T04:49:39;9.93;;;7.03;;
3993;SDS011;2011;48.238;13.948;2023-05-07T04:52:06;12.50;;;6.53;;
3993;SDS011;2011;48.238;13.948;2023-05-07T04:54:33;10.40;;;7.00;;
3993;SDS011;2011;48.238;13.948;2023-05-07T04:57:00;10.47;;;6.97;;
3993;SDS011;2011;48.238;13.948;2023-05-07T04:59:30;11.97;;;6.80;;
3993;SDS011;2011;48.238;13.948;2023-05-07T05:01:56;8.90;;;6.77;;
3993;SDS011;2011;48.238;13.948;2023-05-07T05:04:25;20.00;;;7.37;;
3993;SDS011;2011;48.238;13.948;2023-05-07T05:06:52;9.33;;;6.73;;
3993;SDS011;2011;48.238;13.948;2023-05-07T05:09:19;13.93;;;5.97;;
3993;SDS011;2011;48.238;13.948;2023-05-07T05:11:46;7.97;;;5.30;;
3993;SDS011;2011;48.238;13.948;2023-05-07T05:14:13;11.40;;;5.67;;
3993;SDS011;2011;48.238;13.948;2023-05-07T05:16:40;9.80;;;6.80;;
3993;SDS011;2011;48.238;13.948;2023-05-07T05:19:07;9.13;;;5.90;;
3993;SDS011;2011;48.238;13.948;2023-05-07T05:21:35;8.40;;;5.60;;
3993;SDS011;2011;48.238;13.948;2023-05-07T05:24:02;8.80;;;5.10;;
3993;SDS011;2011;48.238;13.948;2023-05-07T05:26:30;12.27;;;6.20;;
3993;SDS011;2011;48.238;13.948;2023-05-07T05:28:57;8.30;;;5.50;;
3993;SDS011;2011;48.238;13.948;2023-05-07T05:31:24;11.20;;;6.10;;
3993;SDS011;2011;48.238;13.948;2023-05-07T05:33:51;12.07;;;5.77;;
3993;SDS011;2011;48.238;13.948;2023-05-07T05:36:18;9.87;;;6.63;;
3993;SDS011;2011;48.238;13.948;2023-05-07T05:38:46;11.83;;;6.10;;
3993;SDS011;2011;48.238;13.948;2023-05-07T05:41:13;7.70;;;5.90;;
3993;SDS011;2011;48.238;13.948;2023-05-07T05:43:40;10.17;;;6.07;;
3993;SDS011;2011;48.238;13.948;2023-05-07T05:46:07;9.77;;;5.90;;
3993;SDS011;2011;48.238;13.948;2023-05-07T05:48:36;8.40;;;6.50;;
3993;SDS011;2011;48.238;13.948;2023-05-07T05:51:03;7.60;;;5.73;;
3993;SDS011;2011;48.238;13.948;2023-05-07T05:53:31;10.63;;;6.03;;
3993;SDS011;2011;48.238;13.948;2023-05-07T05:55:59;9.60;;;6.30;;
3993;SDS011;2011;48.238;13.948;2023-05-07T05:58:26;7.57;;;5.40;;
3993;SDS011;2011;48.238;13.948;2023-05-07T06:00:53;8.70;;;6.17;;
3993;SDS011;2011;48.238;13.948;2023-05-07T06:03:21;13.30;;;6.90;;
3993;SDS011;2011;48.238;13.948;2023-05-07T06:05:48;11.87;;;7.40;;
3993;SDS011;2011;48.238;13.948;2023-05-07T06:08:15;13.63;;;7.27;;
3993;SDS011;2011;48.238;13.948;2023-05-07T06:10:42;9.03;;;5.53;;
3993;SDS011;2011;48.238;13.948;2023-05-07T06:13:11;8.20;;;5.80;;
3993;SDS011;2011;48.238;13.948;2023-05-07T06:15:38;10.00;;;6.00;;
3993;SDS011;2011;48.238;13.948;2023-05-07T06:18:05;12.10;;;6.40;;
3993;SDS011;2011;48.238;13.948;2023-05-07T06:20:32;8.23;;;5.53;;
3993;SDS011;2011;48.238;13.948;2023-05-07T06:22:58;9.33;;;6.43;;
3993;SDS011;2011;48.238;13.948;2023-05-07T06:25:25;11.40;;;5.70;;
3993;SDS011;2011;48.238;13.948;2023-05-07T06:27:52;9.33;;;5.67;;
3993;SDS011;2011;48.238;13.948;2023-05-07T06:30:21;14.53;;;6.77;;
3993;SDS011;2011;48.238;13.948;2023-05-07T06:32:48;6.90;;;5.23;;
3993;SDS011;2011;48.238;13.948;2023-05-07T06:35:15;18.43;;;6.97;;
3993;SDS011;2011;48.238;13.948;2023-05-07T06:37:42;9.77;;;6.77;;
3993;SDS011;2011;48.238;13.948;2023-05-07T06:40:10;8.90;;;6.20;;
3993;SDS011;2011;48.238;13.948;2023-05-07T06:42:37;8.80;;;6.03;;
3993;SDS011;2011;48.238;13.948;2023-05-07T06:45:05;11.53;;;6.03;;
3993;SDS011;2011;48.238;13.948;2023-05-07T06:47:34;8.53;;;6.10;;
3993;SDS011;2011;48.238;13.948;2023-05-07T06:50:01;9.20;;;5.90;;
3993;SDS011;2011;48.238;13.948;2023-05-07T06:52:28;10.93;;;7.50;;
3993;SDS011;2011;48.238;13.948;2023-05-07T06:54:55;11.27;;;7.30;;
3993;SDS011;2011;48.238;13.948;2023-05-07T06:57:23;9.47;;;6.50;;
3993;SDS011;2011;48.238;13.948;2023-05-07T06:59:50;9.40;;;6.57;;
3993;SDS011;2011;48.238;13.948;2023-05-07T07:02:17;8.77;;;6.23;;
3993;SDS011;2011;48.238;13.948;2023-05-07T07:04:46;8.43;;;6.17;;
3993;SDS011;2011;48.238;13.948;2023-05-07T07:07:13;12.00;;;6.70;;
3993;SDS011;2011;48.238;13.948;2023-05-07T07:09:40;12.77;;;7.47;;
3993;SDS011;2011;48.238;13.948;2023-05-07T07:12:07;12.70;;;7.70;;
3993;SDS011;2011;48.238;13.948;2023-05-07T07:14:34;13.20;;;7.90;;
3993;SDS011;2011;48.238;13.948;2023-05-07T07:17:01;15.47;;;6.90;;
3993;SDS011;2011;48.238;13.948;2023-05-07T07:19:30;12.10;;;7.50;;
3993;SDS011;2011;48.238;13.948;2023-05-07T07:21:58;11.97;;;7.20;;
3993;SDS011;2011;48.238;13.948;2023-05-07T07:24:25;10.50;;;6.43;;
3993;SDS011;2011;48.238;13.948;2023-05-07T07:26:52;12.77;;;7.67;;
3993;SDS011;2011;48.238;13.948;2023-05-07T07:29:20;9.60;;;6.57;;
3993;SDS011;2011;48.238;13.948;2023-05-07T07:31:47;8.97;;;6.53;;
3993;SDS011;2011;48.238;13.948;2023-05-07T07:34:15;14.73;;;8.90;;
3993;SDS011;2011;48.238;13.948;2023-05-07T07:36:42;10.40;;;6.60;;
3993;SDS011;2011;48.238;13.948;2023-05-07T07:39:10;10.40;;;6.63;;
3993;SDS011;2011;48.238;13.948;2023-05-07T07:41:37;10.93;;;6.67;;
3993;SDS011;2011;48.238;13.948;2023-05-07T07:44:04;23.23;;;7.23;;
3993;SDS011;2011;48.238;13.948;2023-05-07T07:46:32;11.43;;;7.27;;
3993;SDS011;2011;48.238;13.948;2023-05-07T07:48:59;9.00;;;6.50;;
3993;SDS011;2011;48.238;13.948;2023-05-07T07:51:26;9.53;;;6.00;;
3993;SDS011;2011;48.238;13.948;2023-05-07T07:53:53;12.80;;;6.23;;
3993;SDS011;2011;48.238;13.948;2023-05-07T07:56:24;10.67;;;6.50;;
3993;SDS011;2011;48.238;13.948;2023-05-07T07:58:51;15.33;;;6.27;;
3993;SDS011;2011;48.238;13.948;2023-05-07T08:01:18;11.57;;;7.00;;
3993;SDS011;2011;48.238;13.948;2023-05-07T08:03:45;10.03;;;6.43;;
3993;SDS011;2011;48.238;13.948;2023-05-07T08:06:12;8.33;;;5.83;;
3993;SDS011;2011;48.238;13.948;2023-05-07T08:08:39;7.10;;;5.30;;
3993;SDS011;2011;48.238;13.948;2023-05-07T08:11:06;7.10;;;5.03;;
3993;SDS011;2011;48.238;13.948;2023-05-07T08:13:35;13.37;;;5.87;;
3993;SDS011;2011;48.238;13.948;2023-05-07T08:16:03;8.20;;;5.00;;
3993;SDS011;2011;48.238;13.948;2023-05-07T08:18:30;8.93;;;6.30;;
3993;SDS011;2011;48.238;13.948;2023-05-07T08:20:57;9.97;;;5.93;;
3993;SDS011;2011;48.238;13.948;2023-05-07T08:23:24;10.80;;;6.40;;
3993;SDS011;2011;48.238;13.948;2023-05-07T08:25:51;8.97;;;6.17;;
3993;SDS011;2011;48.238;13.948;2023-05-07T08:28:17;10.73;;;5.50;;
3993;SDS011;2011;48.238;13.948;2023-05-07T08:30:47;10.73;;;6.20;;
3993;SDS011;2011;48.238;13.948;2023-05-07T08:33:14;9.10;;;5.40;;
3993;SDS011;2011;48.238;13.948;2023-05-07T08:35:41;9.40;;;5.70;;
3993;SDS011;2011;48.238;13.948;2023-05-07T08:38:08;6.60;;;4.30;;
3993;SDS011;2011;48.238;13.948;2023-05-07T08:40:36;10.13;;;6.00;;
3993;SDS011;2011;48.238;13.948;2023-05-07T08:43:05;9.30;;;6.07;;
3993;SDS011;2011;48.238;13.948;2023-05-07T08:45:33;10.70;;;5.77;;
3993;SDS011;2011;48.238;13.948;2023-05-07T08:48:03;7.70;;;5.60;;
3993;SDS011;2011;48.238;13.948;2023-05-07T08:50:42;7.73;;;5.43;;
3993;SDS011;2011;48.238;13.948;2023-05-07T08:53:09;11.10;;;5.50;;
3993;SDS011;2011;48.238;13.948;2023-05-07T08:55:36;10.90;;;5.97;;
3993;SDS011;2011;48.238;13.948;2023-05-07T08:58:03;7.90;;;5.30;;
3993;SDS011;2011;48.238;13.948;2023-05-07T09:00:30;12.97;;;5.90;;
3993;SDS011;2011;48.238;13.948;2023-05-07T09:02:58;9.37;;;5.27;;
3993;SDS011;2011;48.238;13.948;2023-05-07T09:05:27;9.53;;;4.97;;
3993;SDS011;2011;48.238;13.948;2023-05-07T09:07:54;13.80;;;5.17;;
3993;SDS011;2011;48.238;13.948;2023-05-07T09:10:25;9.40;;;5.60;;
3993;SDS011;2011;48.238;13.948;2023-05-07T09:12:52;12.43;;;5.10;;
3993;SDS011;2011;48.238;13.948;2023-05-07T09:15:19;10.43;;;5.30;;
3993;SDS011;2011;48.238;13.948;2023-05-07T09:17:46;13.07;;;5.07;;
3993;SDS011;2011;48.238;13.948;2023-05-07T09:20:14;15.30;;;5.00;;
3993;SDS011;2011;48.238;13.948;2023-05-07T09:22:43;9.13;;;5.90;;
3993;SDS011;2011;48.238;13.948;2023-05-07T09:25:10;9.60;;;6.17;;
3993;SDS011;2011;48.238;13.948;2023-05-07T09:27:37;7.93;;;5.50;;
3993;SDS011;2011;48.238;13.948;2023-05-07T09:30:05;8.50;;;5.50;;
3993;SDS011;2011;48.238;13.948;2023-05-07T09:32:34;9.70;;;5.43;;
3993;SDS011;2011;48.238;13.948;2023-05-07T09:35:03;7.23;;;5.40;;
3993;SDS011;2011;48.238;13.948;2023-05-07T09:37:30;9.47;;;5.90;;
3993;SDS011;2011;48.238;13.948;2023-05-07T09:39:59;10.67;;;5.43;;
3993;SDS011;2011;48.238;13.948;2023-05-07T09:42:26;13.30;;;6.27;;
3993;SDS011;2011;48.238;13.948;2023-05-07T09:44:53;9.00;;;6.40;;
3993;SDS011;2011;48.238;13.948;2023-05-07T09:47:22;10.27;;;5.90;;
3993;SDS011;2011;48.238;13.948;2023-05-07T09:49:50;7.70;;;5.20;;
3993;SDS011;2011;48.238;13.948;2023-05-07T09:52:21;8.50;;;5.13;;
3993;SDS011;2011;48.238;13.948;2023-05-07T09:54:50;16.63;;;4.90;;
3993;SDS011;2011;48.238;13.948;2023-05-07T09:57:19;8.90;;;6.10;;
3993;SDS011;2011;48.238;13.948;2023-05-07T09:59:47;8.63;;;4.87;;
3993;SDS011;2011;48.238;13.948;2023-05-07T10:02:15;9.20;;;5.57;;
3993;SDS011;2011;48.238;13.948;2023-05-07T10:04:44;13.60;;;5.33;;
3993;SDS011;2011;48.238;13.948;2023-05-07T10:07:11;7.33;;;4.63;;
3993;SDS011;2011;48.238;13.948;2023-05-07T10:09:39;8.47;;;5.33;;
3993;SDS011;2011;48.238;13.948;2023-05-07T10:12:08;8.13;;;5.90;;
3993;SDS011;2011;48.238;13.948;2023-05-07T10:14:37;8.73;;;5.70;;
3993;SDS011;2011;48.238;13.948;2023-05-07T10:17:04;12.33;;;5.50;;
3993;SDS011;2011;48.238;13.948;2023-05-07T10:19:33;12.43;;;5.40;;
3993;SDS011;2011;48.238;13.948;2023-05-07T10:22:03;7.10;;;4.80;;
3993;SDS011;2011;48.238;13.948;2023-05-07T10:24:32;11.47;;;4.97;;
3993;SDS011;2011;48.238;13.948;2023-05-07T10:27:00;10.57;;;5.53;;
3993;SDS011;2011;48.238;13.948;2023-05-07T10:29:33;7.50;;;5.30;;
3993;SDS011;2011;48.238;13.948;2023-05-07T10:35:06;9.00;;;4.70;;
3993;SDS011;2011;48.238;13.948;2023-05-07T10:37:40;15.63;;;4.43;;
3993;SDS011;2011;48.238;13.948;2023-05-07T10:40:08;8.03;;;4.50;;
3993;SDS011;2011;48.238;13.948;2023-05-07T10:42:37;10.27;;;4.93;;
3993;SDS011;2011;48.238;13.948;2023-05-07T10:45:13;7.20;;;3.97;;
3993;SDS011;2011;48.238;13.948;2023-05-07T10:50:35;7.53;;;4.00;;
3993;SDS011;2011;48.238;13.948;2023-05-07T10:53:21;8.60;;;4.03;;
3993;SDS011;2011;48.238;13.948;2023-05-07T10:58:52;13.77;;;3.70;;
3993;SDS011;2011;48.238;13.948;2023-05-07T11:04:18;7.70;;;3.90;;
3993;SDS011;2011;48.238;13.948;2023-05-07T11:09:59;10.77;;;3.80;;
3993;SDS011;2011;48.238;13.948;2023-05-07T11:18:08;9.93;;;4.00;;
3993;SDS011;2011;48.238;13.948;2023-05-07T11:20:51;5.60;;;3.03;;
3993;SDS011;2011;48.238;13.948;2023-05-07T11:26:25;11.00;;;3.80;;
3993;SDS011;2011;48.238;13.948;2023-05-07T11:28:53;6.13;;;3.70;;
3993;SDS011;2011;48.238;13.948;2023-05-07T11:31:22;6.67;;;3.73;;
3993;SDS011;2011;48.238;13.948;2023-05-07T11:33:51;6.67;;;4.00;;
3993;SDS011;2011;48.238;13.948;2023-05-07T11:36:20;5.50;;;3.03;;
3993;SDS011;2011;48.238;13.948;2023-05-07T11:38:48;4.57;;;2.83;;
3993;SDS011;2011;48.238;13.948;2023-05-07T11:41:16;8.13;;;3.17;;
3993;SDS011;2011;48.238;13.948;2023-05-07T11:43:57;6.47;;;3.53;;
3993;SDS011;2011;48.238;13.948;2023-05-07T11:46:26;8.90;;;3.93;;
3993;SDS011;2011;48.238;13.948;2023-05-07T11:48:54;8.57;;;4.03;;
3993;SDS011;2011;48.238;13.948;2023-05-07T11:51:23;9.70;;;3.63;;
3993;SDS011;2011;48.238;13.948;2023-05-07T11:53:52;5.70;;;2.90;;
3993;SDS011;2011;48.238;13.948;2023-05-07T11:56:20;11.50;;;4.00;;
3993;SDS011;2011;48.238;13.948;2023-05-07T11:58:47;6.87;;;3.67;;
3993;SDS011;2011;48.238;13.948;2023-05-07T12:01:16;9.17;;;3.43;;
3993;SDS011;2011;48.238;13.948;2023-05-07T12:03:44;6.37;;;3.70;;
3993;SDS011;2011;48.238;13.948;2023-05-07T12:06:12;8.80;;;3.27;;
3993;SDS011;2011;48.238;13.948;2023-05-07T12:08:42;5.57;;;3.23;;
3993;SDS011;2011;48.238;13.948;2023-05-07T12:11:13;5.80;;;3.10;;
3993;SDS011;2011;48.238;13.948;2023-05-07T12:13:42;12.50;;;2.90;;
3993;SDS011;2011;48.238;13.948;2023-05-07T12:16:09;7.57;;;3.20;;
3993;SDS011;2011;48.238;13.948;2023-05-07T12:18:37;8.77;;;3.33;;
3993;SDS011;2011;48.238;13.948;2023-05-07T12:21:05;6.97;;;3.33;;
3993;SDS011;2011;48.238;13.948;2023-05-07T12:23:33;7.67;;;3.63;;
3993;SDS011;2011;48.238;13.948;2023-05-07T12:26:03;12.93;;;3.40;;
3993;SDS011;2011;48.238;13.948;2023-05-07T12:28:30;10.33;;;3.70;;
3993;SDS011;2011;48.238;13.948;2023-05-07T12:31:02;5.20;;;3.30;;
3993;SDS011;2011;48.238;13.948;2023-05-07T12:33:30;10.90;;;3.83;;
3993;SDS011;2011;48.238;13.948;2023-05-07T12:35:58;8.20;;;3.10;;
3993;SDS011;2011;48.238;13.948;2023-05-07T12:38:33;5.13;;;3.00;;
3993;SDS011;2011;48.238;13.948;2023-05-07T12:41:03;7.40;;;3.17;;
3993;SDS011;2011;48.238;13.948;2023-05-07T12:43:32;5.97;;;3.00;;
3993;SDS011;2011;48.238;13.948;2023-05-07T12:46:00;6.50;;;3.10;;
3993;SDS011;2011;48.238;13.948;2023-05-07T12:48:29;5.13;;;2.70;;
3993;SDS011;2011;48.238;13.948;2023-05-07T12:50:57;9.00;;;3.33;;
3993;SDS011;2011;48.238;13.948;2023-05-07T12:53:26;5.30;;;3.37;;
3993;SDS011;2011;48.238;13.948;2023-05-07T12:55:54;5.87;;;3.20;;
3993;SDS011;2011;48.238;13.948;2023-05-07T12:58:25;15.90;;;3.23;;
3993;SDS011;2011;48.238;13.948;2023-05-07T13:00:53;8.37;;;3.40;;
3993;SDS011;2011;48.238;13.948;2023-05-07T13:03:24;6.67;;;3.10;;
3993;SDS011;2011;48.238;13.948;2023-05-07T13:05:52;5.60;;;3.33;;
3993;SDS011;2011;48.238;13.948;2023-05-07T13:08:24;13.50;;;3.97;;
3993;SDS011;2011;48.238;13.948;2023-05-07T13:10:52;5.33;;;3.13;;
3993;SDS011;2011;48.238;13.948;2023-05-07T13:13:19;5.93;;;3.37;;
3993;SDS011;2011;48.238;13.948;2023-05-07T13:15:47;6.83;;;4.03;;
3993;SDS011;2011;48.238;13.948;2023-05-07T13:18:15;8.53;;;3.90;;
3993;SDS011;2011;48.238;13.948;2023-05-07T13:20:42;11.43;;;3.57;;
3993;SDS011;2011;48.238;13.948;2023-05-07T13:23:09;5.97;;;3.60;;
3993;SDS011;2011;48.238;13.948;2023-05-07T13:25:36;12.40;;;4.10;;
3993;SDS011;2011;48.238;13.948;2023-05-07T13:28:03;16.80;;;3.67;;
3993;SDS011;2011;48.238;13.948;2023-05-07T13:30:30;9.47;;;4.20;;
3993;SDS011;2011;48.238;13.948;2023-05-07T13:32:58;6.70;;;4.03;;
3993;SDS011;2011;48.238;13.948;2023-05-07T13:35:25;5.60;;;3.80;;
3993;SDS011;2011;48.238;13.948;2023-05-07T13:37:53;12.37;;;4.70;;
3993;SDS011;2011;48.238;13.948;2023-05-07T13:40:20;7.60;;;4.07;;
3993;SDS011;2011;48.238;13.948;2023-05-07T13:42:48;8.23;;;4.90;;
3993;SDS011;2011;48.238;13.948;2023-05-07T13:45:15;8.20;;;4.20;;
3993;SDS011;2011;48.238;13.948;2023-05-07T13:47:42;7.97;;;5.03;;
3993;SDS011;2011;48.238;13.948;2023-05-07T13:50:11;8.57;;;5.20;;
3993;SDS011;2011;48.238;13.948;2023-05-07T13:52:40;8.63;;;5.23;;
3993;SDS011;2011;48.238;13.948;2023-05-07T13:55:11;7.10;;;4.73;;
3993;SDS011;2011;48.238;13.948;2023-05-07T13:57:38;8.70;;;5.37;;
3993;SDS011;2011;48.238;13.948;2023-05-07T14:00:06;9.03;;;4.60;;
3993;SDS011;2011;48.238;13.948;2023-05-07T14:02:34;12.63;;;5.20;;
3993;SDS011;2011;48.238;13.948;2023-05-07T14:05:01;7.27;;;4.80;;
3993;SDS011;2011;48.238;13.948;2023-05-07T14:07:29;8.80;;;4.93;;
3993;SDS011;2011;48.238;13.948;2023-05-07T14:09:57;12.73;;;5.00;;
3993;SDS011;2011;48.238;13.948;2023-05-07T14:12:25;8.47;;;5.20;;
3993;SDS011;2011;48.238;13.948;2023-05-07T14:14:52;8.17;;;4.50;;
3993;SDS011;2011;48.238;13.948;2023-05-07T14:17:19;13.03;;;4.13;;
3993;SDS011;2011;48.238;13.948;2023-05-07T14:19:48;9.97;;;4.40;;
3993;SDS011;2011;48.238;13.948;2023-05-07T14:22:15;7.97;;;5.30;;
3993;SDS011;2011;48.238;13.948;2023-05-07T14:24:43;22.33;;;5.07;;
3993;SDS011;2011;48.238;13.948;2023-05-07T14:27:10;7.40;;;4.90;;
3993;SDS011;2011;48.238;13.948;2023-05-07T14:29:37;15.83;;;4.30;;
3993;SDS011;2011;48.238;13.948;2023-05-07T14:32:05;12.47;;;4.80;;
3993;SDS011;2011;48.238;13.948;2023-05-07T14:34:32;7.00;;;4.33;;
3993;SDS011;2011;48.238;13.948;2023-05-07T14:36:59;10.03;;;4.20;;
3993;SDS011;2011;48.238;13.948;2023-05-07T14:39:26;9.40;;;4.27;;
3993;SDS011;2011;48.238;13.948;2023-05-07T14:41:55;10.57;;;5.20;;
3993;SDS011;2011;48.238;13.948;2023-05-07T14:44:23;9.80;;;4.73;;
3993;SDS011;2011;48.238;13.948;2023-05-07T14:46:50;7.67;;;4.43;;
3993;SDS011;2011;48.238;13.948;2023-05-07T14:49:17;6.80;;;4.63;;
3993;SDS011;2011;48.238;13.948;2023-05-07T14:51:44;11.50;;;4.20;;
3993;SDS011;2011;48.238;13.948;2023-05-07T14:54:11;6.60;;;3.90;;
3993;SDS011;2011;48.238;13.948;2023-05-07T14:56:39;7.90;;;4.63;;
3993;SDS011;2011;48.238;13.948;2023-05-07T14:59:08;13.03;;;4.90;;
3993;SDS011;2011;48.238;13.948;2023-05-07T15:01:35;9.60;;;4.30;;
3993;SDS011;2011;48.238;13.948;2023-05-07T15:04:02;21.90;;;4.70;;
3993;SDS011;2011;48.238;13.948;2023-05-07T15:06:30;7.50;;;4.33;;
3993;SDS011;2011;48.238;13.948;2023-05-07T15:08:58;7.03;;;4.53;;
3993;SDS011;2011;48.238;13.948;2023-05-07T15:11:26;12.07;;;4.70;;
3993;SDS011;2011;48.238;13.948;2023-05-07T15:13:53;6.93;;;4.60;;
3993;SDS011;2011;48.238;13.948;2023-05-07T15:16:22;8.90;;;4.77;;
3993;SDS011;2011;48.238;13.948;2023-05-07T15:18:49;7.67;;;4.60;;
3993;SDS011;2011;48.238;13.948;2023-05-07T15:21:16;8.57;;;5.00;;
3993;SDS011;2011;48.238;13.948;2023-05-07T15:23:43;6.90;;;5.00;;